sensor_id;sensor_type;location;lat;lon;timestamp;P1;durP1;ratioP1;P2;durP2;ratioP2
64520;SDS011;50896;46.714;17.322;2022-12-18T00:01:24;13.73;;;7.88;;
64520;SDS011;50896;46.714;17.322;2022-12-18T00:04:00;16.40;;;8.20;;
64520;SDS011;50896;46.714;17.322;2022-12-18T00:06:29;17.55;;;8.65;;
64520;SDS011;50896;46.714;17.322;2022-12-18T00:08:57;16.92;;;9.02;;
64520;SDS011;50896;46.714;17.322;2022-12-18T00:11:25;21.77;;;9.23;;
64520;SDS011;50896;46.714;17.322;2022-12-18T00:13:54;18.70;;;9.43;;
64520;SDS011;50896;46.714;17.322;2022-12-18T00:16:23;17.00;;;8.98;;
64520;SDS011;50896;46.714;17.322;2022-12-18T00:18:53;18.83;;;9.52;;
64520;SDS011;50896;46.714;17.322;2022-12-18T00:21:24;17.33;;;8.73;;
64520;SDS011;50896;46.714;17.322;2022-12-18T00:23:52;17.63;;;9.13;;
64520;SDS011;50896;46.714;17.322;2022-12-18T00:26:20;16.42;;;8.75;;
64520;SDS011;50896;46.714;17.322;2022-12-18T00:28:52;15.38;;;8.30;;
64520;SDS011;50896;46.714;17.322;2022-12-18T00:31:21;18.63;;;8.90;;
64520;SDS011;50896;46.714;17.322;2022-12-18T00:33:53;20.38;;;9.27;;
64520;SDS011;50896;46.714;17.322;2022-12-18T00:36:24;16.75;;;8.63;;
64520;SDS011;50896;46.714;17.322;2022-12-18T00:38:53;16.10;;;8.68;;
64520;SDS011;50896;46.714;17.322;2022-12-18T00:41:20;15.27;;;8.30;;
64520;SDS011;50896;46.714;17.322;2022-12-18T00:44:06;14.98;;;7.75;;
64520;SDS011;50896;46.714;17.322;2022-12-18T00:46:36;16.05;;;8.70;;
64520;SDS011;50896;46.714;17.322;2022-12-18T00:49:02;17.50;;;8.30;;
64520;SDS011;50896;46.714;17.322;2022-12-18T00:51:30;14.07;;;7.80;;
64520;SDS011;50896;46.714;17.322;2022-12-18T00:53:56;16.70;;;8.77;;
64520;SDS011;50896;46.714;17.322;2022-12-18T00:56:23;16.80;;;8.95;;
64520;SDS011;50896;46.714;17.322;2022-12-18T00:58:51;17.75;;;8.80;;
64520;SDS011;50896;46.714;17.322;2022-12-18T01:01:18;17.38;;;8.75;;
64520;SDS011;50896;46.714;17.322;2022-12-18T01:03:46;17.10;;;8.50;;
64520;SDS011;50896;46.714;17.322;2022-12-18T01:06:15;17.80;;;9.27;;
64520;SDS011;50896;46.714;17.322;2022-12-18T01:08:42;17.40;;;8.23;;
64520;SDS011;50896;46.714;17.322;2022-12-18T01:11:13;17.55;;;8.85;;
64520;SDS011;50896;46.714;17.322;2022-12-18T01:13:43;16.33;;;9.10;;
64520;SDS011;50896;46.714;17.322;2022-12-18T01:16:14;19.35;;;9.27;;
64520;SDS011;50896;46.714;17.322;2022-12-18T01:18:43;17.15;;;8.50;;
64520;SDS011;50896;46.714;17.322;2022-12-18T01:21:13;15.75;;;8.30;;
64520;SDS011;50896;46.714;17.322;2022-12-18T01:23:41;18.50;;;8.95;;
64520;SDS011;50896;46.714;17.322;2022-12-18T01:26:09;16.95;;;9.00;;
64520;SDS011;50896;46.714;17.322;2022-12-18T01:28:38;20.10;;;9.70;;
64520;SDS011;50896;46.714;17.322;2022-12-18T01:31:17;18.85;;;10.10;;
64520;SDS011;50896;46.714;17.322;2022-12-18T01:36:14;19.00;;;9.27;;
64520;SDS011;50896;46.714;17.322;2022-12-18T01:38:46;20.30;;;9.95;;
64520;SDS011;50896;46.714;17.322;2022-12-18T01:41:13;22.92;;;11.00;;
64520;SDS011;50896;46.714;17.322;2022-12-18T01:43:43;21.97;;;11.07;;
64520;SDS011;50896;46.714;17.322;2022-12-18T01:46:13;23.60;;;11.05;;
64520;SDS011;50896;46.714;17.322;2022-12-18T01:48:41;21.15;;;10.75;;
64520;SDS011;50896;46.714;17.322;2022-12-18T01:51:09;25.58;;;11.95;;
64520;SDS011;50896;46.714;17.322;2022-12-18T01:53:38;24.40;;;11.73;;
64520;SDS011;50896;46.714;17.322;2022-12-18T01:56:08;19.83;;;10.60;;
64520;SDS011;50896;46.714;17.322;2022-12-18T01:58:43;21.98;;;11.68;;
64520;SDS011;50896;46.714;17.322;2022-12-18T02:01:17;23.75;;;12.20;;
64520;SDS011;50896;46.714;17.322;2022-12-18T02:03:44;24.73;;;11.82;;
64520;SDS011;50896;46.714;17.322;2022-12-18T02:08:48;23.60;;;12.32;;
64520;SDS011;50896;46.714;17.322;2022-12-18T02:17:39;22.15;;;10.88;;
64520;SDS011;50896;46.714;17.322;2022-12-18T02:28:09;23.08;;;12.10;;
64520;SDS011;50896;46.714;17.322;2022-12-18T02:30:40;26.27;;;12.88;;
64520;SDS011;50896;46.714;17.322;2022-12-18T02:33:09;26.80;;;12.23;;
64520;SDS011;50896;46.714;17.322;2022-12-18T02:35:38;22.38;;;11.13;;
64520;SDS011;50896;46.714;17.322;2022-12-18T02:38:07;20.48;;;10.88;;
64520;SDS011;50896;46.714;17.322;2022-12-18T02:40:36;25.45;;;10.52;;
64520;SDS011;50896;46.714;17.322;2022-12-18T02:43:08;22.25;;;11.57;;
64520;SDS011;50896;46.714;17.322;2022-12-18T02:45:52;24.02;;;11.18;;
64520;SDS011;50896;46.714;17.322;2022-12-18T02:48:29;22.40;;;11.05;;
64520;SDS011;50896;46.714;17.322;2022-12-18T02:53:31;25.30;;;12.32;;
64520;SDS011;50896;46.714;17.322;2022-12-18T02:56:08;23.20;;;11.98;;
64520;SDS011;50896;46.714;17.322;2022-12-18T03:06:49;24.85;;;13.77;;
64520;SDS011;50896;46.714;17.322;2022-12-18T03:09:39;26.90;;;12.70;;
64520;SDS011;50896;46.714;17.322;2022-12-18T03:14:55;25.33;;;12.32;;
64520;SDS011;50896;46.714;17.322;2022-12-18T03:17:57;28.10;;;13.02;;
64520;SDS011;50896;46.714;17.322;2022-12-18T03:20:30;28.55;;;13.70;;
64520;SDS011;50896;46.714;17.322;2022-12-18T03:23:07;34.15;;;14.02;;
64520;SDS011;50896;46.714;17.322;2022-12-18T03:25:38;28.75;;;14.30;;
64520;SDS011;50896;46.714;17.322;2022-12-18T03:28:09;30.73;;;15.07;;
64520;SDS011;50896;46.714;17.322;2022-12-18T03:30:42;32.35;;;15.82;;
64520;SDS011;50896;46.714;17.322;2022-12-18T03:33:13;31.00;;;15.00;;
64520;SDS011;50896;46.714;17.322;2022-12-18T03:35:48;36.33;;;16.08;;
64520;SDS011;50896;46.714;17.322;2022-12-18T03:38:17;31.80;;;15.23;;
64520;SDS011;50896;46.714;17.322;2022-12-18T03:46:30;27.80;;;13.25;;
64520;SDS011;50896;46.714;17.322;2022-12-18T03:51:56;25.25;;;12.63;;
64520;SDS011;50896;46.714;17.322;2022-12-18T03:54:28;25.20;;;12.73;;
64520;SDS011;50896;46.714;17.322;2022-12-18T03:57:16;29.13;;;12.68;;
64520;SDS011;50896;46.714;17.322;2022-12-18T03:59:50;23.92;;;12.13;;
64520;SDS011;50896;46.714;17.322;2022-12-18T04:02:24;23.90;;;13.02;;
64520;SDS011;50896;46.714;17.322;2022-12-18T04:04:53;26.08;;;12.88;;
64520;SDS011;50896;46.714;17.322;2022-12-18T04:07:26;24.33;;;12.32;;
64520;SDS011;50896;46.714;17.322;2022-12-18T04:09:56;30.38;;;14.15;;
64520;SDS011;50896;46.714;17.322;2022-12-18T04:12:25;26.85;;;14.00;;
64520;SDS011;50896;46.714;17.322;2022-12-18T04:14:53;24.17;;;12.35;;
64520;SDS011;50896;46.714;17.322;2022-12-18T04:17:21;26.73;;;13.13;;
64520;SDS011;50896;46.714;17.322;2022-12-18T04:19:48;26.20;;;12.70;;
64520;SDS011;50896;46.714;17.322;2022-12-18T04:22:15;28.70;;;12.75;;
64520;SDS011;50896;46.714;17.322;2022-12-18T04:24:46;25.23;;;12.30;;
64520;SDS011;50896;46.714;17.322;2022-12-18T04:27:25;27.50;;;13.20;;
64520;SDS011;50896;46.714;17.322;2022-12-18T04:29:52;25.27;;;13.43;;
64520;SDS011;50896;46.714;17.322;2022-12-18T04:32:19;44.90;;;20.33;;
64520;SDS011;50896;46.714;17.322;2022-12-18T04:34:47;50.83;;;25.35;;
64520;SDS011;50896;46.714;17.322;2022-12-18T04:37:14;42.75;;;22.08;;
64520;SDS011;50896;46.714;17.322;2022-12-18T04:39:41;27.48;;;13.60;;
64520;SDS011;50896;46.714;17.322;2022-12-18T04:42:15;30.20;;;13.60;;
64520;SDS011;50896;46.714;17.322;2022-12-18T04:44:42;27.80;;;12.82;;
64520;SDS011;50896;46.714;17.322;2022-12-18T04:47:08;25.52;;;12.57;;
64520;SDS011;50896;46.714;17.322;2022-12-18T04:49:35;26.60;;;13.63;;
64520;SDS011;50896;46.714;17.322;2022-12-18T04:52:02;29.50;;;15.88;;
64520;SDS011;50896;46.714;17.322;2022-12-18T04:54:29;28.65;;;12.88;;
64520;SDS011;50896;46.714;17.322;2022-12-18T04:56:55;30.25;;;13.32;;
64520;SDS011;50896;46.714;17.322;2022-12-18T04:59:22;29.38;;;13.30;;
64520;SDS011;50896;46.714;17.322;2022-12-18T05:01:49;28.23;;;13.15;;
64520;SDS011;50896;46.714;17.322;2022-12-18T05:04:16;27.92;;;13.40;;
64520;SDS011;50896;46.714;17.322;2022-12-18T05:06:43;30.75;;;14.60;;
64520;SDS011;50896;46.714;17.322;2022-12-18T05:09:10;28.77;;;13.38;;
64520;SDS011;50896;46.714;17.322;2022-12-18T05:11:36;35.38;;;15.68;;
64520;SDS011;50896;46.714;17.322;2022-12-18T05:14:03;32.38;;;15.68;;
64520;SDS011;50896;46.714;17.322;2022-12-18T05:16:30;29.23;;;14.77;;
64520;SDS011;50896;46.714;17.322;2022-12-18T05:18:57;37.50;;;18.67;;
64520;SDS011;50896;46.714;17.322;2022-12-18T05:21:23;39.92;;;19.95;;
64520;SDS011;50896;46.714;17.322;2022-12-18T05:23:50;30.75;;;15.45;;
64520;SDS011;50896;46.714;17.322;2022-12-18T05:26:17;27.42;;;13.60;;
64520;SDS011;50896;46.714;17.322;2022-12-18T05:28:44;30.08;;;15.38;;
64520;SDS011;50896;46.714;17.322;2022-12-18T05:31:12;28.13;;;14.65;;
64520;SDS011;50896;46.714;17.322;2022-12-18T05:33:39;26.75;;;14.27;;
64520;SDS011;50896;46.714;17.322;2022-12-18T05:36:07;28.08;;;13.32;;
64520;SDS011;50896;46.714;17.322;2022-12-18T05:38:35;27.38;;;13.48;;
64520;SDS011;50896;46.714;17.322;2022-12-18T05:41:04;31.60;;;14.18;;
64520;SDS011;50896;46.714;17.322;2022-12-18T05:43:31;30.85;;;14.75;;
64520;SDS011;50896;46.714;17.322;2022-12-18T05:46:03;26.33;;;13.73;;
64520;SDS011;50896;46.714;17.322;2022-12-18T05:48:34;26.35;;;12.95;;
64520;SDS011;50896;46.714;17.322;2022-12-18T05:51:08;29.42;;;13.68;;
64520;SDS011;50896;46.714;17.322;2022-12-18T05:53:37;28.58;;;13.23;;
64520;SDS011;50896;46.714;17.322;2022-12-18T05:56:06;27.42;;;13.10;;
64520;SDS011;50896;46.714;17.322;2022-12-18T05:58:38;25.63;;;12.18;;
64520;SDS011;50896;46.714;17.322;2022-12-18T06:01:09;26.85;;;12.70;;
64520;SDS011;50896;46.714;17.322;2022-12-18T06:03:38;27.45;;;12.95;;
64520;SDS011;50896;46.714;17.322;2022-12-18T06:06:40;24.75;;;13.20;;
64520;SDS011;50896;46.714;17.322;2022-12-18T06:08:59;24.52;;;11.90;;
64520;SDS011;50896;46.714;17.322;2022-12-18T06:11:27;23.23;;;11.73;;
64520;SDS011;50896;46.714;17.322;2022-12-18T06:13:55;25.05;;;12.60;;
64520;SDS011;50896;46.714;17.322;2022-12-18T06:16:25;23.15;;;12.23;;
64520;SDS011;50896;46.714;17.322;2022-12-18T06:18:52;23.92;;;12.15;;
64520;SDS011;50896;46.714;17.322;2022-12-18T06:21:19;24.92;;;12.60;;
64520;SDS011;50896;46.714;17.322;2022-12-18T06:23:46;29.88;;;14.10;;
64520;SDS011;50896;46.714;17.322;2022-12-18T06:26:13;25.17;;;12.18;;
64520;SDS011;50896;46.714;17.322;2022-12-18T06:28:40;30.63;;;13.07;;
64520;SDS011;50896;46.714;17.322;2022-12-18T06:31:07;28.80;;;13.50;;
64520;SDS011;50896;46.714;17.322;2022-12-18T06:33:35;27.60;;;13.27;;
64520;SDS011;50896;46.714;17.322;2022-12-18T06:36:05;29.10;;;13.27;;
64520;SDS011;50896;46.714;17.322;2022-12-18T06:38:34;24.85;;;11.65;;
64520;SDS011;50896;46.714;17.322;2022-12-18T06:41:07;23.05;;;12.13;;
64520;SDS011;50896;46.714;17.322;2022-12-18T06:43:34;23.23;;;11.85;;
64520;SDS011;50896;46.714;17.322;2022-12-18T06:46:02;25.80;;;12.07;;
64520;SDS011;50896;46.714;17.322;2022-12-18T06:48:30;28.83;;;14.55;;
64520;SDS011;50896;46.714;17.322;2022-12-18T06:50:57;27.35;;;12.90;;
64520;SDS011;50896;46.714;17.322;2022-12-18T06:53:24;28.30;;;13.73;;
64520;SDS011;50896;46.714;17.322;2022-12-18T06:55:51;37.55;;;16.13;;
64520;SDS011;50896;46.714;17.322;2022-12-18T06:58:18;52.13;;;19.77;;
64520;SDS011;50896;46.714;17.322;2022-12-18T07:00:45;55.45;;;20.08;;
64520;SDS011;50896;46.714;17.322;2022-12-18T07:03:11;46.80;;;18.85;;
64520;SDS011;50896;46.714;17.322;2022-12-18T07:05:41;47.03;;;17.98;;
64520;SDS011;50896;46.714;17.322;2022-12-18T07:08:08;47.92;;;19.65;;
64520;SDS011;50896;46.714;17.322;2022-12-18T07:10:42;43.38;;;18.33;;
64520;SDS011;50896;46.714;17.322;2022-12-18T07:13:13;39.55;;;17.50;;
64520;SDS011;50896;46.714;17.322;2022-12-18T07:15:40;36.47;;;14.95;;
64520;SDS011;50896;46.714;17.322;2022-12-18T07:18:08;39.28;;;17.20;;
64520;SDS011;50896;46.714;17.322;2022-12-18T07:20:35;34.55;;;16.02;;
64520;SDS011;50896;46.714;17.322;2022-12-18T07:23:02;40.15;;;18.13;;
64520;SDS011;50896;46.714;17.322;2022-12-18T07:25:33;33.58;;;16.85;;
64520;SDS011;50896;46.714;17.322;2022-12-18T07:28:01;42.78;;;18.83;;
64520;SDS011;50896;46.714;17.322;2022-12-18T07:30:28;44.83;;;21.00;;
64520;SDS011;50896;46.714;17.322;2022-12-18T07:32:55;47.63;;;21.63;;
64520;SDS011;50896;46.714;17.322;2022-12-18T07:35:22;37.67;;;19.13;;
64520;SDS011;50896;46.714;17.322;2022-12-18T07:37:51;63.00;;;29.40;;
64520;SDS011;50896;46.714;17.322;2022-12-18T07:40:17;55.97;;;23.88;;
64520;SDS011;50896;46.714;17.322;2022-12-18T07:42:44;56.53;;;24.25;;
64520;SDS011;50896;46.714;17.322;2022-12-18T07:45:11;54.08;;;25.20;;
64520;SDS011;50896;46.714;17.322;2022-12-18T07:47:38;45.55;;;22.45;;
64520;SDS011;50896;46.714;17.322;2022-12-18T07:50:07;45.03;;;20.70;;
64520;SDS011;50896;46.714;17.322;2022-12-18T07:52:34;42.50;;;18.60;;
64520;SDS011;50896;46.714;17.322;2022-12-18T07:55:01;38.90;;;18.67;;
64520;SDS011;50896;46.714;17.322;2022-12-18T07:57:28;37.30;;;18.15;;
64520;SDS011;50896;46.714;17.322;2022-12-18T08:00:15;37.63;;;18.45;;
64520;SDS011;50896;46.714;17.322;2022-12-18T08:02:42;43.47;;;20.17;;
64520;SDS011;50896;46.714;17.322;2022-12-18T08:05:10;44.83;;;19.65;;
64520;SDS011;50896;46.714;17.322;2022-12-18T08:07:37;48.80;;;21.52;;
64520;SDS011;50896;46.714;17.322;2022-12-18T08:10:04;48.17;;;21.60;;
64520;SDS011;50896;46.714;17.322;2022-12-18T08:12:32;50.03;;;23.65;;
64520;SDS011;50896;46.714;17.322;2022-12-18T08:14:59;52.15;;;24.10;;
64520;SDS011;50896;46.714;17.322;2022-12-18T08:17:26;50.95;;;23.25;;
64520;SDS011;50896;46.714;17.322;2022-12-18T08:19:52;52.50;;;24.98;;
64520;SDS011;50896;46.714;17.322;2022-12-18T08:22:19;60.10;;;27.95;;
64520;SDS011;50896;46.714;17.322;2022-12-18T08:24:46;58.42;;;26.17;;
64520;SDS011;50896;46.714;17.322;2022-12-18T08:27:13;53.78;;;23.52;;
64520;SDS011;50896;46.714;17.322;2022-12-18T08:29:54;42.58;;;21.05;;
64520;SDS011;50896;46.714;17.322;2022-12-18T08:32:21;41.60;;;20.35;;
64520;SDS011;50896;46.714;17.322;2022-12-18T08:34:48;44.67;;;21.63;;
64520;SDS011;50896;46.714;17.322;2022-12-18T08:37:14;43.97;;;21.08;;
64520;SDS011;50896;46.714;17.322;2022-12-18T08:39:41;45.75;;;22.38;;
64520;SDS011;50896;46.714;17.322;2022-12-18T08:42:08;44.08;;;21.83;;
64520;SDS011;50896;46.714;17.322;2022-12-18T08:44:53;45.20;;;20.42;;
64520;SDS011;50896;46.714;17.322;2022-12-18T08:47:20;48.58;;;21.10;;
64520;SDS011;50896;46.714;17.322;2022-12-18T08:49:47;45.80;;;22.13;;
64520;SDS011;50896;46.714;17.322;2022-12-18T08:52:13;50.20;;;23.63;;
64520;SDS011;50896;46.714;17.322;2022-12-18T08:54:40;58.15;;;25.10;;
64520;SDS011;50896;46.714;17.322;2022-12-18T08:57:07;44.60;;;22.27;;
64520;SDS011;50896;46.714;17.322;2022-12-18T08:59:33;44.47;;;21.40;;
64520;SDS011;50896;46.714;17.322;2022-12-18T09:02:00;42.65;;;20.08;;
64520;SDS011;50896;46.714;17.322;2022-12-18T09:04:27;40.55;;;19.75;;
64520;SDS011;50896;46.714;17.322;2022-12-18T09:06:54;44.90;;;20.75;;
64520;SDS011;50896;46.714;17.322;2022-12-18T09:09:21;36.47;;;18.73;;
64520;SDS011;50896;46.714;17.322;2022-12-18T09:11:47;41.83;;;18.67;;
64520;SDS011;50896;46.714;17.322;2022-12-18T09:14:14;42.55;;;20.48;;
64520;SDS011;50896;46.714;17.322;2022-12-18T09:16:41;51.25;;;21.67;;
64520;SDS011;50896;46.714;17.322;2022-12-18T09:19:08;41.83;;;19.70;;
64520;SDS011;50896;46.714;17.322;2022-12-18T09:21:37;34.38;;;16.95;;
64520;SDS011;50896;46.714;17.322;2022-12-18T09:24:14;36.58;;;16.75;;
64520;SDS011;50896;46.714;17.322;2022-12-18T09:26:42;33.75;;;15.57;;
64520;SDS011;50896;46.714;17.322;2022-12-18T09:29:13;33.05;;;15.18;;
64520;SDS011;50896;46.714;17.322;2022-12-18T09:31:41;28.90;;;14.77;;
64520;SDS011;50896;46.714;17.322;2022-12-18T09:34:08;28.90;;;14.60;;
64520;SDS011;50896;46.714;17.322;2022-12-18T09:36:34;27.70;;;14.60;;
64520;SDS011;50896;46.714;17.322;2022-12-18T09:39:02;32.83;;;15.80;;
64520;SDS011;50896;46.714;17.322;2022-12-18T09:44:20;30.83;;;15.57;;
64520;SDS011;50896;46.714;17.322;2022-12-18T09:47:38;28.52;;;14.18;;
64520;SDS011;50896;46.714;17.322;2022-12-18T09:49:56;26.08;;;13.88;;
64520;SDS011;50896;46.714;17.322;2022-12-18T09:52:30;33.70;;;15.90;;
64520;SDS011;50896;46.714;17.322;2022-12-18T09:55:14;31.92;;;15.25;;
64520;SDS011;50896;46.714;17.322;2022-12-18T09:57:53;32.78;;;17.33;;
64520;SDS011;50896;46.714;17.322;2022-12-18T10:00:24;34.33;;;17.13;;
64520;SDS011;50896;46.714;17.322;2022-12-18T10:02:52;28.80;;;15.93;;
64520;SDS011;50896;46.714;17.322;2022-12-18T10:16:36;29.15;;;15.43;;
64520;SDS011;50896;46.714;17.322;2022-12-18T10:19:25;40.42;;;18.77;;
64520;SDS011;50896;46.714;17.322;2022-12-18T10:27:32;32.22;;;15.80;;
64520;SDS011;50896;46.714;17.322;2022-12-18T10:29:59;29.83;;;15.00;;
64520;SDS011;50896;46.714;17.322;2022-12-18T10:32:35;30.08;;;14.77;;
64520;SDS011;50896;46.714;17.322;2022-12-18T10:35:02;27.83;;;14.32;;
64520;SDS011;50896;46.714;17.322;2022-12-18T10:37:29;36.33;;;17.67;;
64520;SDS011;50896;46.714;17.322;2022-12-18T10:40:15;41.67;;;20.48;;
64520;SDS011;50896;46.714;17.322;2022-12-18T10:43:02;23.60;;;13.23;;
64520;SDS011;50896;46.714;17.322;2022-12-18T10:45:38;32.88;;;14.85;;
64520;SDS011;50896;46.714;17.322;2022-12-18T10:48:17;29.73;;;15.93;;
64520;SDS011;50896;46.714;17.322;2022-12-18T10:50:46;29.67;;;15.88;;
64520;SDS011;50896;46.714;17.322;2022-12-18T10:56:04;30.42;;;14.05;;
64520;SDS011;50896;46.714;17.322;2022-12-18T10:58:34;30.55;;;14.07;;
64520;SDS011;50896;46.714;17.322;2022-12-18T11:03:41;27.13;;;14.52;;
64520;SDS011;50896;46.714;17.322;2022-12-18T11:08:46;23.90;;;12.75;;
64520;SDS011;50896;46.714;17.322;2022-12-18T11:11:24;23.15;;;11.80;;
64520;SDS011;50896;46.714;17.322;2022-12-18T11:14:13;23.77;;;12.85;;
64520;SDS011;50896;46.714;17.322;2022-12-18T11:16:46;24.90;;;13.05;;
64520;SDS011;50896;46.714;17.322;2022-12-18T11:19:35;23.48;;;13.70;;
64520;SDS011;50896;46.714;17.322;2022-12-18T11:25:42;25.98;;;14.30;;
64520;SDS011;50896;46.714;17.322;2022-12-18T11:27:59;35.03;;;19.30;;
64520;SDS011;50896;46.714;17.322;2022-12-18T11:30:28;34.67;;;20.80;;
64520;SDS011;50896;46.714;17.322;2022-12-18T11:35:55;20.83;;;11.80;;
64520;SDS011;50896;46.714;17.322;2022-12-18T11:38:31;22.00;;;13.60;;
64520;SDS011;50896;46.714;17.322;2022-12-18T11:41:10;20.75;;;12.90;;
64520;SDS011;50896;46.714;17.322;2022-12-18T11:43:53;19.58;;;13.13;;
64520;SDS011;50896;46.714;17.322;2022-12-18T11:46:26;17.55;;;11.82;;
64520;SDS011;50896;46.714;17.322;2022-12-18T11:49:11;19.58;;;13.30;;
64520;SDS011;50896;46.714;17.322;2022-12-18T11:51:48;19.52;;;12.38;;
64520;SDS011;50896;46.714;17.322;2022-12-18T11:54:20;17.58;;;12.18;;
64520;SDS011;50896;46.714;17.322;2022-12-18T11:56:58;43.65;;;22.77;;
64520;SDS011;50896;46.714;17.322;2022-12-18T11:59:55;27.83;;;16.05;;
64520;SDS011;50896;46.714;17.322;2022-12-18T12:05:39;50.60;;;25.55;;
64520;SDS011;50896;46.714;17.322;2022-12-18T12:11:04;41.33;;;21.73;;
64520;SDS011;50896;46.714;17.322;2022-12-18T12:13:48;38.20;;;19.92;;
64520;SDS011;50896;46.714;17.322;2022-12-18T12:16:37;39.00;;;20.92;;
64520;SDS011;50896;46.714;17.322;2022-12-18T12:19:36;22.10;;;13.50;;
64520;SDS011;50896;46.714;17.322;2022-12-18T12:24:51;21.17;;;13.05;;
64520;SDS011;50896;46.714;17.322;2022-12-18T12:27:39;22.42;;;13.18;;
64520;SDS011;50896;46.714;17.322;2022-12-18T12:30:13;21.30;;;12.52;;
64520;SDS011;50896;46.714;17.322;2022-12-18T12:38:42;25.55;;;14.10;;
64520;SDS011;50896;46.714;17.322;2022-12-18T12:41:19;20.13;;;11.50;;
64520;SDS011;50896;46.714;17.322;2022-12-18T12:44:13;21.23;;;11.95;;
64520;SDS011;50896;46.714;17.322;2022-12-18T12:46:44;20.75;;;11.50;;
64520;SDS011;50896;46.714;17.322;2022-12-18T12:49:13;30.95;;;16.95;;
64520;SDS011;50896;46.714;17.322;2022-12-18T12:51:45;27.63;;;14.43;;
64520;SDS011;50896;46.714;17.322;2022-12-18T12:54:19;28.02;;;14.43;;
64520;SDS011;50896;46.714;17.322;2022-12-18T13:08:28;14.85;;;7.78;;
64520;SDS011;50896;46.714;17.322;2022-12-18T13:11:01;16.63;;;8.75;;
64520;SDS011;50896;46.714;17.322;2022-12-18T13:13:53;14.30;;;8.30;;
64520;SDS011;50896;46.714;17.322;2022-12-18T13:16:23;14.80;;;8.30;;
64520;SDS011;50896;46.714;17.322;2022-12-18T13:18:55;18.48;;;9.43;;
64520;SDS011;50896;46.714;17.322;2022-12-18T13:21:32;16.30;;;8.32;;
64520;SDS011;50896;46.714;17.322;2022-12-18T13:24:14;14.90;;;8.05;;
64520;SDS011;50896;46.714;17.322;2022-12-18T13:26:48;14.35;;;7.85;;
64520;SDS011;50896;46.714;17.322;2022-12-18T13:29:40;18.83;;;8.10;;
64520;SDS011;50896;46.714;17.322;2022-12-18T13:32:18;13.93;;;7.80;;
64520;SDS011;50896;46.714;17.322;2022-12-18T13:37:51;13.88;;;6.93;;
64520;SDS011;50896;46.714;17.322;2022-12-18T13:45:47;14.20;;;7.60;;
64520;SDS011;50896;46.714;17.322;2022-12-18T13:48:19;14.55;;;7.93;;
64520;SDS011;50896;46.714;17.322;2022-12-18T13:50:55;13.75;;;6.93;;
64520;SDS011;50896;46.714;17.322;2022-12-18T13:53:30;13.55;;;7.80;;
64520;SDS011;50896;46.714;17.322;2022-12-18T13:56:00;14.43;;;7.07;;
64520;SDS011;50896;46.714;17.322;2022-12-18T13:58:28;14.73;;;7.45;;
64520;SDS011;50896;46.714;17.322;2022-12-18T14:00:55;16.67;;;7.45;;
64520;SDS011;50896;46.714;17.322;2022-12-18T14:03:24;13.75;;;7.63;;
64520;SDS011;50896;46.714;17.322;2022-12-18T14:08:31;15.88;;;7.68;;
64520;SDS011;50896;46.714;17.322;2022-12-18T14:11:03;14.10;;;7.80;;
64520;SDS011;50896;46.714;17.322;2022-12-18T14:13:36;15.85;;;8.80;;
64520;SDS011;50896;46.714;17.322;2022-12-18T14:16:11;14.52;;;7.75;;
64520;SDS011;50896;46.714;17.322;2022-12-18T14:18:43;14.13;;;8.02;;
64520;SDS011;50896;46.714;17.322;2022-12-18T14:21:27;16.00;;;8.13;;
64520;SDS011;50896;46.714;17.322;2022-12-18T14:24:06;18.63;;;8.90;;
64520;SDS011;50896;46.714;17.322;2022-12-18T14:26:45;15.48;;;7.82;;
64520;SDS011;50896;46.714;17.322;2022-12-18T14:29:20;17.17;;;8.55;;
64520;SDS011;50896;46.714;17.322;2022-12-18T14:34:50;17.40;;;8.65;;
64520;SDS011;50896;46.714;17.322;2022-12-18T14:37:20;16.55;;;8.65;;
64520;SDS011;50896;46.714;17.322;2022-12-18T14:39:57;15.93;;;8.27;;
64520;SDS011;50896;46.714;17.322;2022-12-18T14:42:32;15.50;;;9.10;;
64520;SDS011;50896;46.714;17.322;2022-12-18T14:48:15;19.15;;;9.88;;
64520;SDS011;50896;46.714;17.322;2022-12-18T14:50:59;19.90;;;9.82;;
64520;SDS011;50896;46.714;17.322;2022-12-18T14:53:37;19.00;;;9.18;;
64520;SDS011;50896;46.714;17.322;2022-12-18T14:56:15;19.55;;;9.63;;
64520;SDS011;50896;46.714;17.322;2022-12-18T14:58:48;17.85;;;9.43;;
64520;SDS011;50896;46.714;17.322;2022-12-18T15:01:25;18.45;;;10.02;;
64520;SDS011;50896;46.714;17.322;2022-12-18T15:04:03;21.92;;;11.30;;
64520;SDS011;50896;46.714;17.322;2022-12-18T15:06:32;24.17;;;12.00;;
64520;SDS011;50896;46.714;17.322;2022-12-18T15:09:23;29.65;;;14.90;;
64520;SDS011;50896;46.714;17.322;2022-12-18T15:11:49;26.60;;;13.40;;
64520;SDS011;50896;46.714;17.322;2022-12-18T15:17:01;23.20;;;12.98;;
64520;SDS011;50896;46.714;17.322;2022-12-18T15:19:41;22.90;;;12.65;;
64520;SDS011;50896;46.714;17.322;2022-12-18T15:22:17;21.58;;;11.80;;
64520;SDS011;50896;46.714;17.322;2022-12-18T15:24:47;25.48;;;13.10;;
64520;SDS011;50896;46.714;17.322;2022-12-18T15:27:20;22.70;;;12.77;;
64520;SDS011;50896;46.714;17.322;2022-12-18T15:30:26;27.23;;;12.18;;
64520;SDS011;50896;46.714;17.322;2022-12-18T15:32:48;23.75;;;13.27;;
64520;SDS011;50896;46.714;17.322;2022-12-18T15:37:42;27.20;;;14.32;;
64520;SDS011;50896;46.714;17.322;2022-12-18T15:40:13;30.65;;;14.88;;
64520;SDS011;50896;46.714;17.322;2022-12-18T15:42:45;25.17;;;13.32;;
64520;SDS011;50896;46.714;17.322;2022-12-18T15:45:32;23.73;;;13.23;;
64520;SDS011;50896;46.714;17.322;2022-12-18T15:47:59;29.08;;;13.55;;
64520;SDS011;50896;46.714;17.322;2022-12-18T15:50:26;26.38;;;13.88;;
64520;SDS011;50896;46.714;17.322;2022-12-18T15:52:54;27.85;;;14.20;;
64520;SDS011;50896;46.714;17.322;2022-12-18T15:55:22;29.60;;;14.88;;
64520;SDS011;50896;46.714;17.322;2022-12-18T15:58:09;27.52;;;14.15;;
64520;SDS011;50896;46.714;17.322;2022-12-18T16:00:38;32.35;;;16.73;;
64520;SDS011;50896;46.714;17.322;2022-12-18T16:03:06;28.98;;;13.63;;
64520;SDS011;50896;46.714;17.322;2022-12-18T16:05:34;24.08;;;13.15;;
64520;SDS011;50896;46.714;17.322;2022-12-18T16:08:01;25.25;;;13.00;;
64520;SDS011;50896;46.714;17.322;2022-12-18T16:10:28;25.00;;;12.77;;
64520;SDS011;50896;46.714;17.322;2022-12-18T16:12:55;22.05;;;10.43;;
64520;SDS011;50896;46.714;17.322;2022-12-18T16:15:22;19.95;;;11.60;;
64520;SDS011;50896;46.714;17.322;2022-12-18T16:17:50;19.95;;;11.20;;
64520;SDS011;50896;46.714;17.322;2022-12-18T16:20:21;20.52;;;10.82;;
64520;SDS011;50896;46.714;17.322;2022-12-18T16:22:48;22.23;;;10.93;;
64520;SDS011;50896;46.714;17.322;2022-12-18T16:25:23;22.15;;;12.40;;
64520;SDS011;50896;46.714;17.322;2022-12-18T16:27:53;21.35;;;11.32;;
64520;SDS011;50896;46.714;17.322;2022-12-18T16:30:22;22.48;;;11.18;;
64520;SDS011;50896;46.714;17.322;2022-12-18T16:32:59;21.13;;;10.50;;
64520;SDS011;50896;46.714;17.322;2022-12-18T16:35:26;22.15;;;10.60;;
64520;SDS011;50896;46.714;17.322;2022-12-18T16:37:53;22.80;;;10.48;;
64520;SDS011;50896;46.714;17.322;2022-12-18T16:40:20;19.98;;;10.68;;